Time;durP1;ratioP1;P1;durP2;ratioP2;P2;SDS_P1;SDS_P2;PMS_P1;PMS_P2;Temp;Humidity;BMP_temperature;BMP_pressure;BME280_temperature;BME280_humidity;BME280_pressure;Samples;Min_cycle;Max_cycle;Signal;HPM_P1;HPM_P2
2021/07/02 00:02:14;;;;;;;11.52;5.10;;;;;;;13.58;100.00;97664.41;4996915;28;20171;-83
2021/07/02 00:04:41;;;;;;;9.50;5.63;;;;;;;13.58;100.00;97658.97;5011110;28;20061;-85
2021/07/02 00:07:08;;;;;;;8.63;5.32;;;;;;;13.52;100.00;97652.94;5029523;28;20033;-84
2021/07/02 00:09:37;;;;;;;10.52;5.10;;;;;;;13.52;100.00;97644.00;4994580;28;20523;-84
2021/07/02 00:12:04;;;;;;;7.68;4.90;;;;;;;13.51;100.00;97659.50;5011505;28;20065;-83
2021/07/02 00:14:31;;;;;;;11.13;5.43;;;;;;;13.58;100.00;97670.63;5011649;28;20459;-82
2021/07/02 00:16:57;;;;;;;10.70;4.85;;;;;;;13.48;100.00;97648.50;5011783;28;20065;-84
2021/07/02 00:19:26;;;;;;;10.43;5.43;;;;;;;13.44;100.00;97636.69;5012525;28;20048;-82
2021/07/02 00:21:52;;;;;;;9.40;5.47;;;;;;;13.43;100.00;97654.94;5011825;28;20047;-83
2021/07/02 00:24:19;;;;;;;8.27;5.38;;;;;;;13.47;100.00;97661.28;4995003;28;20049;-83
2021/07/02 00:26:46;;;;;;;11.13;5.75;;;;;;;13.35;100.00;97652.28;5010563;28;20037;-86
2021/07/02 00:29:12;;;;;;;16.10;6.32;;;;;;;13.38;100.00;97659.78;5033343;28;20041;-84
2021/07/02 00:31:39;;;;;;;13.02;5.75;;;;;;;13.37;100.00;97658.97;5031461;28;20053;-84
2021/07/02 00:34:06;;;;;;;9.57;5.50;;;;;;;13.32;100.00;97659.19;4994459;28;20462;-84
2021/07/02 00:36:32;;;;;;;13.18;6.07;;;;;;;13.30;100.00;97664.16;5010855;28;20049;-83
2021/07/02 00:38:59;;;;;;;11.30;6.07;;;;;;;13.27;100.00;97666.72;4992350;28;20037;-84
2021/07/02 00:41:25;;;;;;;14.18;5.78;;;;;;;13.24;100.00;97665.47;4994105;28;20050;-85
2021/07/02 00:43:54;;;;;;;10.88;6.10;;;;;;;13.23;100.00;97672.06;5027670;28;20037;-85
2021/07/02 00:46:21;;;;;;;11.35;5.78;;;;;;;13.18;100.00;97663.28;5010191;28;20510;-83
2021/07/02 00:48:50;;;;;;;10.80;5.80;;;;;;;13.17;100.00;97667.91;5009384;28;20046;-85
2021/07/02 00:51:17;;;;;;;12.13;6.07;;;;;;;13.16;100.00;97662.84;5009711;28;20057;-86
2021/07/02 00:53:45;;;;;;;13.40;5.95;;;;;;;13.14;100.00;97668.56;5009018;28;20041;-85
2021/07/02 00:56:18;;;;;;;12.70;6.10;;;;;;;13.14;100.00;97665.88;4992739;28;20049;-82
2021/07/02 00:58:45;;;;;;;13.00;6.57;;;;;;;13.11;100.00;97666.50;5027761;28;20030;-86
2021/07/02 01:01:18;;;;;;;12.18;6.18;;;;;;;13.08;100.00;97656.31;5009559;28;20190;-82
2021/07/02 01:03:47;;;;;;;12.85;7.03;;;;;;;13.05;100.00;97654.22;5027495;28;20041;-87
2021/07/02 01:06:15;;;;;;;11.07;6.05;;;;;;;13.13;100.00;97667.00;5010066;28;20049;-85
2021/07/02 01:08:42;;;;;;;9.48;5.80;;;;;;;13.09;100.00;97655.19;5008662;28;20052;-85
2021/07/02 01:11:11;;;;;;;14.05;5.85;;;;;;;13.10;100.00;97662.22;4994438;28;20561;-85
2021/07/02 01:13:38;;;;;;;9.20;5.40;;;;;;;13.09;100.00;97655.19;5009691;28;20053;-86
2021/07/02 01:16:05;;;;;;;9.80;6.18;;;;;;;13.09;100.00;97652.47;5031513;28;20076;-87
2021/07/02 01:18:32;;;;;;;10.85;5.90;;;;;;;13.06;100.00;97658.53;5013027;28;20101;-85
2021/07/02 01:20:59;;;;;;;8.93;5.40;;;;;;;13.00;100.00;97660.66;5000424;28;20113;-86
2021/07/02 01:23:30;;;;;;;13.48;5.35;;;;;;;12.95;100.00;97644.56;5014389;28;20152;-83
2021/07/02 01:25:59;;;;;;;11.57;5.60;;;;;;;12.99;100.00;97660.97;5013179;28;20126;-82
2021/07/02 01:28:26;;;;;;;8.68;4.75;;;;;;;13.01;100.00;97653.28;5011037;28;20486;-83
2021/07/02 01:30:53;;;;;;;11.45;5.32;;;;;;;12.98;100.00;97652.03;5030396;28;20038;-84
2021/07/02 01:33:19;;;;;;;9.05;5.28;;;;;;;12.99;100.00;97656.34;5029326;28;20094;-85
2021/07/02 01:35:46;;;;;;;10.95;5.47;;;;;;;12.93;100.00;97644.06;4995098;28;20067;-86
2021/07/02 01:38:14;;;;;;;9.80;4.78;;;;;;;12.96;100.00;97648.84;5011243;28;20049;-86
2021/07/02 01:40:41;;;;;;;9.48;4.70;;;;;;;13.01;100.00;97656.81;5029372;28;20501;-86
2021/07/02 01:43:08;;;;;;;8.23;4.72;;;;;;;12.93;100.00;97646.78;5013534;28;20068;-86
2021/07/02 01:45:35;;;;;;;9.70;4.70;;;;;;;12.92;100.00;97647.13;5039325;28;20061;-86
2021/07/02 01:48:02;;;;;;;10.88;4.93;;;;;;;12.98;100.00;97653.97;5015180;28;20057;-87
2021/07/02 01:50:29;;;;;;;10.90;4.88;;;;;;;12.93;100.00;97637.84;5015272;28;20148;-84
2021/07/02 01:52:56;;;;;;;7.05;3.85;;;;;;;12.95;100.00;97652.72;5009517;28;20041;-83
2021/07/02 01:55:22;;;;;;;9.13;4.70;;;;;;;13.00;100.00;97659.88;4992572;28;20071;-82
2021/07/02 01:57:49;;;;;;;8.18;4.25;;;;;;;13.02;100.00;97654.88;5009319;28;20044;-84
2021/07/02 02:00:17;;;;;;;8.90;4.40;;;;;;;12.98;100.00;97660.19;5030872;28;20049;-84
2021/07/02 02:02:44;;;;;;;8.60;4.50;;;;;;;13.02;100.00;97655.69;5031288;28;20163;-83
2021/07/02 02:05:11;;;;;;;7.90;4.53;;;;;;;13.01;100.00;97662.25;5031362;28;20045;-84
2021/07/02 02:07:38;;;;;;;10.43;4.60;;;;;;;13.00;100.00;97662.59;5012086;28;20252;-83
2021/07/02 02:10:05;;;;;;;8.35;4.45;;;;;;;13.02;100.00;97660.31;5009244;28;20116;-84
2021/07/02 02:12:32;;;;;;;7.15;4.28;;;;;;;12.99;100.00;97675.38;5027099;28;20482;-84
2021/07/02 02:14:59;;;;;;;7.95;3.72;;;;;;;13.04;100.00;97663.50;5027539;28;20611;-83
2021/07/02 02:17:26;;;;;;;7.03;3.50;;;;;;;12.93;100.00;97648.72;5028522;23;20050;-84
2021/07/02 02:19:52;;;;;;;9.02;4.00;;;;;;;12.96;100.00;97654.28;4978361;28;20046;-82
2021/07/02 02:22:19;;;;;;;7.15;3.47;;;;;;;13.01;100.00;97658.72;5002727;28;20049;-82
2021/07/02 02:24:45;;;;;;;6.25;3.33;;;;;;;12.98;100.00;97657.47;4966947;28;20057;-81
2021/07/02 02:27:12;;;;;;;8.55;3.65;;;;;;;13.01;100.00;97659.53;4974815;28;20056;-81
2021/07/02 02:29:38;;;;;;;8.60;3.33;;;;;;;13.03;100.00;97662.69;4974986;28;20054;-80
2021/07/02 02:32:06;;;;;;;7.15;3.50;;;;;;;13.04;100.00;97663.50;4959493;28;20050;-81
2021/07/02 02:34:38;;;;;;;6.03;2.92;;;;;;;13.00;100.00;97652.50;4958940;28;20104;-81
2021/07/02 02:37:10;;;;;;;8.85;3.20;;;;;;;12.99;100.00;97652.81;4992185;28;20429;-80
2021/07/02 02:39:37;;;;;;;6.43;3.17;;;;;;;13.03;100.00;97656.50;4958866;28;20042;-81
2021/07/02 02:42:04;;;;;;;8.80;3.38;;;;;;;12.99;100.00;97655.53;4992794;28;20050;-81
2021/07/02 02:44:33;;;;;;;7.88;3.10;;;;;;;12.99;100.00;97658.25;4974981;28;20494;-81
2021/07/02 02:47:00;;;;;;;5.30;2.90;;;;;;;13.01;100.00;97661.44;4993082;28;20039;-80
2021/07/02 02:49:27;;;;;;;6.75;3.17;;;;;;;13.03;100.00;97659.97;4975230;28;20043;-80
2021/07/02 02:51:53;;;;;;;4.43;2.72;;;;;;;12.99;100.00;97658.25;4975546;28;20061;-81
2021/07/02 02:54:20;;;;;;;7.40;2.63;;;;;;;13.04;100.00;97668.94;4993154;28;20046;-81
2021/07/02 02:57:05;;;;;;;5.22;2.65;;;;;;;12.97;100.00;97664.03;4959499;28;20429;-82
2021/07/02 02:59:34;;;;;;;4.78;2.70;;;;;;;13.03;100.00;97675.53;4976651;28;20430;-82
2021/07/02 03:02:06;;;;;;;11.23;2.83;;;;;;;13.04;100.00;97668.94;4982774;28;20054;-82
2021/07/02 03:04:35;;;;;;;5.10;2.50;;;;;;;13.08;100.00;97672.63;4966546;28;20494;-82
2021/07/02 03:07:05;;;;;;;5.25;2.95;;;;;;;13.05;100.00;97665.09;4998919;28;20050;-79
2021/07/02 03:09:33;;;;;;;7.05;3.20;;;;;;;13.03;100.00;97665.41;4982365;28;20455;-80
2021/07/02 03:12:00;;;;;;;8.00;3.28;;;;;;;13.04;100.00;97669.75;4998418;28;20042;-79
2021/07/02 03:14:27;;;;;;;6.68;2.70;;;;;;;13.04;100.00;97668.94;4980372;28;20125;-80
2021/07/02 03:16:54;;;;;;;7.07;3.05;;;;;;;13.03;100.00;97681.72;4988074;28;20058;-78
2021/07/02 03:19:20;;;;;;;4.72;3.00;;;;;;;12.97;100.00;97666.75;4990759;28;20050;-81
2021/07/02 03:21:47;;;;;;;7.38;2.88;;;;;;;13.00;100.00;97682.41;4991418;28;20046;-79
2021/07/02 03:24:14;;;;;;;6.43;2.70;;;;;;;13.01;100.00;97681.25;4991773;28;20042;-79
2021/07/02 03:26:43;;;;;;;5.13;2.72;;;;;;;13.04;100.00;97683.31;5008573;28;20066;-82
2021/07/02 03:29:09;;;;;;;7.43;3.05;;;;;;;13.03;100.00;97683.66;4994330;28;20101;-83
2021/07/02 03:31:36;;;;;;;7.18;3.17;;;;;;;13.03;100.00;97697.25;4986434;28;20473;-78
2021/07/02 03:34:03;;;;;;;5.38;2.83;;;;;;;13.02;100.00;97691.03;4965653;28;20077;-83
2021/07/02 03:36:31;;;;;;;5.13;2.70;;;;;;;13.04;100.00;97696.13;4984574;28;20048;-82
2021/07/02 03:38:57;;;;;;;4.65;2.47;;;;;;;13.05;100.00;97697.72;5001544;28;20046;-83
2021/07/02 03:41:24;;;;;;;4.93;2.40;;;;;;;13.03;100.00;97691.81;4998662;28;20145;-80
2021/07/02 03:43:53;;;;;;;5.70;2.40;;;;;;;13.06;100.00;97693.84;4997310;28;20050;-80
2021/07/02 03:46:22;;;;;;;4.25;2.03;;;;;;;13.03;100.00;97695.31;4980605;28;20046;-80
2021/07/02 03:48:48;;;;;;;5.30;2.22;;;;;;;13.05;100.00;97695.00;4994923;28;20093;-80
2021/07/02 03:51:16;;;;;;;3.60;2.05;;;;;;;13.07;100.00;97695.50;4979749;28;20482;-80
2021/07/02 03:53:42;;;;;;;4.80;1.85;;;;;;;13.08;100.00;97699.81;4978931;28;20045;-79
2021/07/02 03:56:09;;;;;;;3.30;1.70;;;;;;;13.08;100.00;97699.81;4963568;28;20042;-81
2021/07/02 03:58:35;;;;;;;3.85;1.73;;;;;;;13.09;100.00;97698.66;4978766;28;20054;-80
2021/07/02 04:01:02;;;;;;;3.75;1.40;;;;;;;13.08;100.00;97697.88;4979225;28;20042;-80
2021/07/02 04:03:29;;;;;;;2.53;1.45;;;;;;;13.08;100.00;97703.31;4978928;28;20050;-81
2021/07/02 04:05:55;;;;;;;6.05;1.50;;;;;;;13.09;100.00;97696.75;4979331;28;20608;-79
2021/07/02 04:08:27;;;;;;;6.22;1.50;;;;;;;13.15;100.00;97700.09;4996335;28;20110;-80
2021/07/02 04:10:55;;;;;;;3.15;1.30;;;;;;;13.14;100.00;97692.28;4979067;28;20602;-80
2021/07/02 04:13:24;;;;;;;6.32;1.50;;;;;;;13.17;100.00;97707.91;4979553;28;20054;-80
2021/07/02 04:15:53;;;;;;;4.43;1.50;;;;;;;13.16;100.00;97706.31;4978742;28;20046;-80
2021/07/02 04:18:21;;;;;;;2.17;1.30;;;;;;;13.17;100.00;97716.84;4978144;28;20564;-80
2021/07/02 04:20:48;;;;;;;5.13;1.40;;;;;;;13.23;100.00;97720.19;4995724;28;20560;-81
2021/07/02 04:23:15;;;;;;;3.05;1.38;;;;;;;13.21;100.00;97715.09;4994504;28;20054;-83
2021/07/02 04:25:44;;;;;;;3.17;1.08;;;;;;;13.16;100.00;97707.13;4961168;28;20240;-78
2021/07/02 04:28:13;;;;;;;3.70;1.20;;;;;;;13.18;100.00;97723.09;4973477;28;20129;-80
2021/07/02 04:30:40;;;;;;;5.68;1.40;;;;;;;13.18;100.00;97712.22;4985205;28;20050;-80
2021/07/02 04:33:08;;;;;;;2.17;1.15;;;;;;;13.18;100.00;97713.03;4982806;28;20043;-79
2021/07/02 04:35:34;;;;;;;2.92;1.00;;;;;;;13.23;100.00;97725.63;4962187;28;20047;-80
2021/07/02 04:38:03;;;;;;;2.75;1.20;;;;;;;13.26;100.00;97716.81;4972545;28;20047;-78
2021/07/02 04:40:30;;;;;;;2.47;1.17;;;;;;;13.22;100.00;97724.81;4979079;28;20054;-82
2021/07/02 04:42:57;;;;;;;3.58;1.02;;;;;;;13.22;100.00;97713.94;4969542;28;20123;-81
2021/07/02 04:45:24;;;;;;;2.20;0.95;;;;;;;13.28;100.00;97728.16;4967999;28;20054;-81
2021/07/02 04:47:51;;;;;;;3.03;1.20;;;;;;;13.26;100.00;97714.91;4972742;28;20046;-81
2021/07/02 04:50:18;;;;;;;2.80;1.20;;;;;;;13.30;100.00;97717.72;4987345;28;20446;-81
2021/07/02 04:52:44;;;;;;;2.67;1.20;;;;;;;13.32;100.00;97727.16;4982929;28;20059;-82
2021/07/02 04:55:11;;;;;;;3.17;1.10;;;;;;;13.34;100.00;97719.47;4978230;28;20058;-83
2021/07/02 04:57:38;;;;;;;4.45;1.50;;;;;;;13.37;100.00;97729.66;4961197;28;20055;-83
2021/07/02 05:00:06;;;;;;;5.30;1.58;;;;;;;13.28;100.00;97723.50;4945545;28;20155;-80
2021/07/02 05:02:33;;;;;;;2.10;1.30;;;;;;;13.38;100.00;97742.16;4976344;28;20050;-83
2021/07/02 05:04:59;;;;;;;5.22;1.50;;;;;;;13.39;100.00;97732.06;4976871;28;20046;-82
2021/07/02 05:07:28;;;;;;;2.58;1.50;;;;;;;13.36;100.00;97730.00;4944728;28;20057;-83
2021/07/02 05:09:55;;;;;;;2.58;1.10;;;;;;;13.41;100.00;97732.53;4975415;28;20074;-80
2021/07/02 05:12:22;;;;;;;4.65;1.58;;;;;;;13.45;100.00;97744.34;4982289;28;20034;-80
2021/07/02 05:14:52;;;;;;;4.13;1.50;;;;;;;13.43;100.00;97731.09;4977236;28;20042;-80
2021/07/02 05:17:21;;;;;;;7.72;1.52;;;;;;;13.42;100.00;97742.31;4977069;28;20061;-78
2021/07/02 05:19:50;;;;;;;4.78;1.80;;;;;;;13.42;100.00;97726.75;4986324;28;20050;-80
2021/07/02 05:22:19;;;;;;;3.50;1.55;;;;;;;13.46;100.00;97738.59;4998647;28;20310;-79
2021/07/02 05:24:47;;;;;;;3.90;1.50;;;;;;;13.50;100.00;97750.38;4982435;28;20052;-79
2021/07/02 05:27:16;;;;;;;3.75;1.50;;;;;;;13.46;100.00;97748.66;4996275;28;20042;-81
2021/07/02 05:29:43;;;;;;;2.35;1.30;;;;;;;13.47;100.00;97748.31;4976622;28;20043;-79
2021/07/02 05:32:10;;;;;;;2.60;1.52;;;;;;;13.49;100.00;97754.25;5000680;28;20050;-80
2021/07/02 05:34:38;;;;;;;3.35;1.67;;;;;;;13.52;100.00;97763.66;4994995;28;20068;-78
2021/07/02 05:37:05;;;;;;;6.00;1.70;;;;;;;13.56;100.00;97742.81;5010976;28;20062;-78
2021/07/02 05:39:32;;;;;;;3.03;1.48;;;;;;;13.54;100.00;97748.59;5001330;28;20282;-80
2021/07/02 05:41:59;;;;;;;3.08;1.48;;;;;;;13.55;100.00;97752.91;4978667;28;20060;-80
2021/07/02 05:44:27;;;;;;;3.55;1.42;;;;;;;13.56;100.00;97748.25;4994246;28;20045;-77
2021/07/02 05:46:53;;;;;;;3.78;1.67;;;;;;;13.55;100.00;97766.50;4984372;28;20386;-80
2021/07/02 05:49:21;;;;;;;3.38;1.35;;;;;;;13.54;100.00;97756.78;4958208;28;20053;-79
2021/07/02 05:51:47;;;;;;;3.42;1.73;;;;;;;13.52;100.00;97744.63;4975754;28;20049;-79
2021/07/02 05:54:15;;;;;;;3.55;1.80;;;;;;;13.57;100.00;97752.59;4970623;28;20047;-81
2021/07/02 05:56:41;;;;;;;6.28;1.92;;;;;;;13.58;100.00;97751.44;5004131;28;20049;-79
2021/07/02 05:59:08;;;;;;;6.45;1.65;;;;;;;13.61;100.00;97757.03;4953685;28;20058;-78
2021/07/02 06:01:35;;;;;;;3.90;1.55;;;;;;;13.60;100.00;97752.72;4973566;28;20047;-79
2021/07/02 06:04:01;;;;;;;3.72;1.60;;;;;;;13.63;100.00;97765.66;4974078;28;20050;-79
2021/07/02 06:06:31;;;;;;;3.67;1.70;;;;;;;13.72;100.00;97771.03;4992139;28;20050;-79
2021/07/02 06:08:58;;;;;;;4.32;1.73;;;;;;;13.67;100.00;97763.06;4958716;28;20528;-79
2021/07/02 06:11:24;;;;;;;6.18;1.92;;;;;;;13.67;100.00;97765.78;4992241;28;20050;-79
2021/07/02 06:13:53;;;;;;;3.58;1.90;;;;;;;13.70;100.00;97773.31;4958196;28;20236;-80
2021/07/02 06:16:20;;;;;;;4.55;2.00;;;;;;;13.75;100.00;97773.88;4992212;28;20042;-79
2021/07/02 06:18:47;;;;;;;6.85;2.20;;;;;;;13.76;100.00;97774.66;4992191;28;20050;-77
2021/07/02 06:21:13;;;;;;;7.13;2.83;;;;;;;13.71;100.00;97772.16;5004681;28;20065;-81
2021/07/02 06:23:40;;;;;;;7.10;3.00;;;;;;;13.66;100.00;97775.06;4994508;28;20109;-80
2021/07/02 06:26:07;;;;;;;11.45;4.28;;;;;;;13.68;100.00;97778.25;4976164;28;20077;-80
2021/07/02 06:28:34;;;;;;;13.52;5.30;;;;;;;13.70;100.00;97786.91;4975077;28;20746;-80
2021/07/02 06:31:01;;;;;;;15.13;5.60;;;;;;;13.69;100.00;97774.41;4999055;28;20089;-79
2021/07/02 06:33:28;;;;;;;16.33;6.07;;;;;;;13.76;100.00;97785.56;4994699;28;20046;-80
2021/07/02 06:35:54;;;;;;;21.85;6.25;;;;;;;13.76;100.00;97771.94;4977313;28;20050;-80
2021/07/02 06:38:21;;;;;;;18.63;6.85;;;;;;;13.74;100.00;97787.81;4969236;28;20188;-79
2021/07/02 06:40:48;;;;;;;23.45;7.95;;;;;;;13.83;100.00;97787.78;5000466;28;20060;-80
2021/07/02 06:43:15;;;;;;;23.67;8.60;;;;;;;13.75;100.00;97779.31;4995090;28;20478;-81
2021/07/02 06:45:44;;;;;;;24.05;8.57;;;;;;;13.91;100.00;97784.19;4996046;28;20399;-81
2021/07/02 06:48:13;;;;;;;28.38;9.18;;;;;;;13.90;100.00;97796.19;4977505;28;20050;-79
2021/07/02 06:50:43;;;;;;;32.08;11.57;;;;;;;13.83;100.00;97790.50;4995653;28;20100;-79
2021/07/02 06:53:10;;;;;;;40.88;11.95;;;;;;;13.84;100.00;97800.22;4976651;28;20050;-79
2021/07/02 06:55:38;;;;;;;35.55;12.35;;;;;;;13.86;100.00;97801.50;4993470;28;20113;-80
2021/07/02 06:58:05;;;;;;;36.28;12.05;;;;;;;13.85;100.00;97805.34;4977710;28;20101;-80
2021/07/02 07:00:31;;;;;;;36.72;12.88;;;;;;;13.94;100.00;97803.34;4979136;28;20042;-76
2021/07/02 07:02:59;;;;;;;40.70;12.52;;;;;;;13.99;100.00;97794.97;4997742;28;20050;-80
2021/07/02 07:05:25;;;;;;;37.55;13.80;;;;;;;14.09;100.00;97808.19;4995344;28;20169;-79
2021/07/02 07:07:52;;;;;;;41.13;14.57;;;;;;;14.13;100.00;97800.16;5012421;28;20046;-79
2021/07/02 07:10:19;;;;;;;39.00;13.68;;;;;;;14.20;100.00;97805.84;5012245;28;20056;-78
2021/07/02 07:12:45;;;;;;;38.70;14.48;;;;;;;14.30;100.00;97805.44;4995457;28;20046;-79
2021/07/02 07:15:13;;;;;;;32.50;13.05;;;;;;;14.33;100.00;97807.53;4996321;28;20100;-78
2021/07/02 07:17:40;;;;;;;34.88;12.98;;;;;;;14.35;100.00;97810.72;5014169;28;20046;-79
2021/07/02 07:20:07;;;;;;;33.50;13.75;;;;;;;14.30;100.00;97816.34;4994816;28;20084;-80
2021/07/02 07:22:34;;;;;;;33.50;14.38;;;;;;;14.26;100.00;97807.25;5013594;28;20046;-79
2021/07/02 07:25:02;;;;;;;43.40;15.40;;;;;;;14.19;100.00;97817.91;5013835;28;20050;-79
2021/07/02 07:27:29;;;;;;;45.47;16.38;;;;;;;14.24;100.00;97809.53;5005564;28;20046;-81
2021/07/02 07:29:55;;;;;;;47.47;19.02;;;;;;;14.24;100.00;97817.69;5003083;28;20092;-80
2021/07/02 07:32:22;;;;;;;49.42;19.65;;;;;;;14.27;100.00;97812.34;4982326;28;20050;-78
2021/07/02 07:34:58;;;;;;;54.17;19.58;;;;;;;14.30;100.00;97813.59;5015309;28;20076;-80
2021/07/02 07:37:29;;;;;;;52.65;19.40;;;;;;;14.37;100.00;97821.28;4973720;28;20206;-80
2021/07/02 07:39:57;;;;;;;57.05;19.70;;;;;;;14.37;100.00;97830.25;5002978;28;20434;-79
2021/07/02 07:42:23;;;;;;;50.67;19.33;;;;;;;14.44;100.00;97816.09;4978620;28;20078;-78
2021/07/02 07:44:52;;;;;;;48.80;18.23;;;;;;;14.44;100.00;97825.06;4977368;28;20053;-79
2021/07/02 07:47:19;;;;;;;53.47;18.95;;;;;;;14.48;100.00;97817.03;4995718;28;20042;-81
2021/07/02 07:49:46;;;;;;;37.97;17.13;;;;;;;14.37;100.00;97830.25;4979849;28;20521;-80
2021/07/02 07:52:17;;;;;;;41.10;17.25;;;;;;;14.39;100.00;97830.72;4982037;28;20070;-78
2021/07/02 07:54:44;;;;;;;39.92;16.58;;;;;;;14.44;100.00;97826.97;4997051;28;20096;-78
2021/07/02 07:57:10;;;;;;;44.17;18.35;;;;;;;14.35;100.00;97824.31;5000113;28;20098;-79
2021/07/02 07:59:37;;;;;;;44.30;17.40;;;;;;;14.39;100.00;97829.91;5001712;28;20054;-81
2021/07/02 08:02:05;;;;;;;44.72;18.48;;;;;;;14.40;100.00;97835.00;4979310;28;20141;-82
2021/07/02 08:04:31;;;;;;;39.88;17.77;;;;;;;14.38;100.00;97826.38;5014247;28;20041;-77
2021/07/02 08:07:00;;;;;;;42.72;17.35;;;;;;;14.37;100.00;97837.63;5027118;28;20033;-80
2021/07/02 08:09:31;;;;;;;43.92;16.88;;;;;;;14.46;100.00;97833.69;4995882;28;20437;-80
2021/07/02 08:12:00;;;;;;;35.28;16.50;;;;;;;14.43;100.00;97831.63;4995970;28;20064;-80
2021/07/02 08:14:28;;;;;;;37.33;17.35;;;;;;;14.45;100.00;97834.84;5013786;28;20532;-79
2021/07/02 08:16:54;;;;;;;40.30;17.58;;;;;;;14.54;100.00;97840.97;5013283;28;20057;-80
2021/07/02 08:19:21;;;;;;;39.60;18.17;;;;;;;14.61;100.00;97843.97;5013368;28;20078;-80
2021/07/02 08:21:47;;;;;;;38.42;18.40;;;;;;;14.63;100.00;97835.47;4997620;28;20593;-80
2021/07/02 08:24:14;;;;;;;40.75;17.90;;;;;;;14.67;100.00;97845.34;5015151;28;20046;-79
2021/07/02 08:26:42;;;;;;;40.90;16.90;;;;;;;14.71;100.00;97842.75;5015312;28;20042;-80
2021/07/02 08:29:26;;;;;;;38.13;18.48;;;;;;;14.82;100.00;97841.97;4997184;28;20057;-78
2021/07/02 08:31:56;;;;;;;41.67;17.45;;;;;;;14.94;100.00;97842.00;5015448;28;20077;-79
2021/07/02 08:34:23;;;;;;;32.75;17.90;;;;;;;15.05;100.00;97842.34;4997107;28;20048;-79
2021/07/02 08:36:50;;;;;;;41.90;19.17;;;;;;;15.06;100.00;97835.78;4997582;28;20048;-80
2021/07/02 08:39:17;;;;;;;36.17;17.23;;;;;;;15.23;100.00;97841.03;5015510;28;20076;-80
2021/07/02 08:41:43;;;;;;;35.15;17.02;;;;;;;15.31;100.00;97844.78;4997372;28;20096;-79
2021/07/02 08:44:10;;;;;;;32.20;16.00;;;;;;;15.35;100.00;97841.03;5015170;28;20222;-81
2021/07/02 08:46:38;;;;;;;25.58;14.60;;;;;;;15.27;100.00;97843.88;5015376;28;20042;-80
2021/07/02 08:49:25;;;;;;;27.73;15.07;;;;;;;15.20;100.00;97841.69;5015791;28;20125;-81
2021/07/02 08:51:52;;;;;;;30.30;16.20;;;;;;;15.19;100.00;97834.66;5025905;28;20037;-80
2021/07/02 08:54:19;;;;;;;38.65;18.83;;;;;;;15.20;100.00;97840.91;5016535;28;20042;-80
2021/07/02 08:56:58;;;;;;;37.38;18.02;;;;;;;15.06;100.00;97835.78;5017411;28;20516;-80
2021/07/02 08:59:27;;;;;;;37.72;19.50;;;;;;;15.03;100.00;97838.38;5012216;28;20046;-78
2021/07/02 09:01:54;;;;;;;39.65;20.13;;;;;;;14.92;100.00;97847.00;4995508;28;20050;-79
2021/07/02 09:04:34;;;;;;;40.72;21.80;;;;;;;14.96;100.00;97856.09;5012626;28;20512;-80
2021/07/02 09:07:12;;;;;;;58.10;24.05;;;;;;;15.02;100.00;97853.94;5015417;28;20501;-80
2021/07/02 09:09:56;;;;;;;47.25;24.48;;;;;;;14.91;100.00;97859.06;5000034;28;20046;-81
2021/07/02 09:12:35;;;;;;;53.25;25.10;;;;;;;14.98;100.00;97855.75;4985336;28;20073;-79
2021/07/02 09:15:06;;;;;;;55.20;26.33;;;;;;;15.00;100.00;97856.22;4995531;28;20110;-81
2021/07/02 09:17:36;;;;;;;59.45;28.92;;;;;;;15.03;100.00;97860.19;5013831;28;20096;-80
2021/07/02 09:20:15;;;;;;;58.95;29.30;;;;;;;14.99;100.00;97868.28;4995187;28;20460;-81
2021/07/02 09:22:56;;;;;;;63.47;30.02;;;;;;;15.09;100.00;97867.03;5012315;28;20509;-79
2021/07/02 09:25:30;;;;;;;71.22;31.73;;;;;;;15.11;100.00;97864.75;4993912;28;20117;-79
2021/07/02 09:28:07;;;;;;;66.10;32.85;;;;;;;15.28;100.00;97872.75;5012175;28;20454;-79
2021/07/02 09:30:39;;;;;;;67.13;31.83;;;;;;;15.29;100.00;97864.22;4994524;28;20057;-79
2021/07/02 09:33:12;;;;;;;64.72;30.38;;;;;;;15.44;100.00;97874.47;4994039;28;20240;-78
2021/07/02 09:35:47;;;;;;;53.42;29.00;;;;;;;15.69;100.00;97869.03;5011306;28;20040;-79
2021/07/02 09:38:16;;;;;;;51.15;27.90;;;;;;;15.96;100.00;97868.31;4988232;28;20124;-79
2021/07/02 09:40:47;;;;;;;51.15;27.52;;;;;;;15.89;100.00;97857.19;4976868;28;20457;-79
2021/07/02 09:43:18;;;;;;;44.88;25.60;;;;;;;16.07;100.00;97856.59;4988573;28;20122;-79
2021/07/02 09:45:46;;;;;;;48.50;25.88;;;;;;;16.31;100.00;97857.66;4990129;28;20057;-78
2021/07/02 09:48:15;;;;;;;45.53;24.35;;;;;;;16.67;100.00;97849.34;4956888;28;20117;-79
2021/07/02 09:50:51;;;;;;;44.53;24.45;;;;;;;16.86;100.00;97849.47;4974397;28;20100;-79
2021/07/02 09:53:22;;;;;;;;;;;;;;;16.83;100.00;97850.97;4992530;28;20501;-79
2021/07/02 09:55:51;;;;;;;41.90;23.55;;;;;;;16.96;100.00;97839.94;4992921;28;19925;-80
2021/07/02 09:58:41;;;;;;;38.78;22.10;;;;;;;17.36;100.00;97843.34;4991129;28;20518;-80
2021/07/02 10:01:23;;;;;;;39.75;23.55;;;;;;;17.88;100.00;97838.34;4966964;28;20108;-80
2021/07/02 10:03:49;;;;;;;38.72;23.02;;;;;;;17.90;100.00;97833.31;4989584;28;20053;-80
2021/07/02 10:06:22;;;;;;;38.05;22.77;;;;;;;18.11;100.00;97832.19;4975944;28;20070;-80
2021/07/02 10:08:53;;;;;;;38.83;22.60;;;;;;;18.22;100.00;97833.22;4994249;28;20074;-80
2021/07/02 10:11:20;;;;;;;34.47;22.67;;;;;;;18.03;100.00;97836.72;4992737;28;20054;-80
2021/07/02 10:13:50;;;;;;;35.10;21.60;;;;;;;18.01;100.00;97828.06;4973070;28;20051;-79
2021/07/02 10:16:21;;;;;;;31.02;20.60;;;;;;;18.63;100.00;97827.81;4990258;28;20357;-82
2021/07/02 10:18:48;;;;;;;35.28;22.52;;;;;;;18.91;100.00;97822.09;4976297;28;20121;-82
2021/07/02 10:21:23;;;;;;;30.52;19.55;;;;;;;19.00;100.00;97819.06;4993194;28;20041;-81
2021/07/02 10:23:56;;;;;;;32.67;20.70;;;;;;;18.78;100.00;97823.41;4965808;28;20053;-82
2021/07/02 10:26:28;;;;;;;;;;;;;;;18.82;100.00;97828.94;4981449;28;20049;-82
2021/07/02 10:28:56;;;;;;;30.23;19.52;;;;;;;18.94;100.00;97834.28;4994633;28;20017;-82
2021/07/02 10:31:23;;;;;;;33.28;21.20;;;;;;;18.61;100.00;97813.66;4991787;28;20046;-82
2021/07/02 10:33:58;;;;;;;33.20;19.70;;;;;;;18.74;100.00;97825.28;4986779;28;20050;-82
2021/07/02 10:36:31;;;;;;;31.73;19.67;;;;;;;19.65;100.00;97817.06;4992705;28;20391;-82
2021/07/02 10:39:03;;;;;;;30.13;18.60;;;;;;;21.19;100.00;97813.88;4983562;28;20463;-82
2021/07/02 10:41:32;;;;;;;26.67;17.27;;;;;;;20.66;100.00;97819.63;4985987;28;20073;-81
2021/07/02 10:44:12;;;;;;;25.85;16.48;;;;;;;19.75;100.00;97816.41;4981096;28;20054;-82
2021/07/02 10:46:52;;;;;;;25.00;17.30;;;;;;;19.24;100.00;97824.22;4975557;28;20046;-81
2021/07/02 10:49:19;;;;;;;29.30;18.45;;;;;;;18.86;100.00;97829.81;4989803;28;20074;-80
2021/07/02 10:51:53;;;;;;;33.67;18.92;;;;;;;18.71;100.00;97823.28;4974379;28;20034;-80
2021/07/02 10:54:28;;;;;;;28.45;18.75;;;;;;;18.43;100.00;97834.44;5000756;28;20050;-81
2021/07/02 10:57:11;;;;;;;23.97;16.77;;;;;;;21.43;100.00;97816.06;4995803;28;20042;-80
2021/07/02 10:59:41;;;;;;;24.20;14.70;;;;;;;23.09;100.00;97820.47;5001170;28;20054;-81
2021/07/02 11:02:17;;;;;;;26.50;15.10;;;;;;;21.65;100.00;97820.56;4980730;28;20136;-81
2021/07/02 11:05:00;;;;;;;24.50;15.57;;;;;;;20.55;100.00;97821.44;4964457;28;20161;-81
2021/07/02 11:07:33;;;;;;;25.63;14.75;;;;;;;19.51;100.00;97834.09;5019020;28;20084;-81
2021/07/02 11:10:18;;;;;;;25.73;16.02;;;;;;;18.65;100.00;97827.47;5024477;28;20053;-82
2021/07/02 11:13:49;;;;;;;;;;;;;;;;;;;;;
2021/07/02 11:16:27;;;;;;;23.10;15.52;;;;;;;18.42;100.00;97834.81;4991481;28;20055;-82
2021/07/02 11:19:25;;;;;;;23.23;15.85;;;;;;;18.62;100.00;97850.13;4983511;28;20041;-80
2021/07/02 11:22:34;;;;;;;27.70;16.67;;;;;;;19.03;100.00;97845.78;5029342;28;20034;-81
2021/07/02 11:28:15;;;;;;;25.88;16.08;;;;;;;22.13;100.00;97843.34;5018234;28;20049;-82
2021/07/02 11:30:44;;;;;;;24.50;15.65;;;;;;;23.73;100.00;97840.66;5015143;28;20424;-83
2021/07/02 11:33:12;;;;;;;21.73;14.18;;;;;;;23.56;100.00;97833.94;5006046;28;20049;-82